createdAt,value
2023-05-15T00:00:20.240Z,6.60
2023-05-15T00:02:41.811Z,6.63
2023-05-15T00:05:04.984Z,7.33
2023-05-15T00:07:26.585Z,7.30
2023-05-15T00:09:48.041Z,7.70
2023-05-15T00:12:09.511Z,7.93
2023-05-15T00:14:31.053Z,7.60
2023-05-15T00:16:52.479Z,7.87
2023-05-15T00:19:14.718Z,8.10
2023-05-15T00:21:36.312Z,7.30
2023-05-15T00:23:58.470Z,6.73
2023-05-15T00:26:20.091Z,6.73
2023-05-15T00:28:41.791Z,7.10
2023-05-15T00:31:03.265Z,6.27
2023-05-15T00:33:24.770Z,5.80
2023-05-15T00:35:46.480Z,5.90
2023-05-15T00:38:07.966Z,5.83
2023-05-15T00:40:30.858Z,6.20
2023-05-15T00:42:52.863Z,5.50
2023-05-15T00:45:15.291Z,6.33
2023-05-15T00:47:40.373Z,6.27
2023-05-15T00:50:03.019Z,5.83
2023-05-15T00:52:24.596Z,6.60
2023-05-15T00:54:46.042Z,6.80
2023-05-15T00:57:08.919Z,6.67
2023-05-15T00:59:31.697Z,6.77
2023-05-15T01:01:53.312Z,6.37
2023-05-15T01:04:14.825Z,6.20
2023-05-15T01:06:36.510Z,6.77
2023-05-15T01:09:02.217Z,5.37
2023-05-15T01:11:27.694Z,6.13
2023-05-15T01:13:49.127Z,6.40
2023-05-15T01:16:10.904Z,6.63
2023-05-15T01:18:33.425Z,6.23
2023-05-15T01:21:13.707Z,6.60
2023-05-15T01:23:57.072Z,5.73
2023-05-15T01:26:46.378Z,6.30
2023-05-15T01:29:20.633Z,6.07
2023-05-15T01:31:45.496Z,5.47
2023-05-15T01:34:09.450Z,6.00
2023-05-15T01:36:38.543Z,5.70
2023-05-15T01:39:03.427Z,5.50
2023-05-15T01:41:45.484Z,6.33
2023-05-15T01:44:26.162Z,6.17
2023-05-15T01:46:51.273Z,6.50
2023-05-15T01:49:15.998Z,5.70
2023-05-15T01:51:39.246Z,5.73
2023-05-15T01:54:01.364Z,5.60
2023-05-15T01:56:24.333Z,6.10
2023-05-15T01:58:48.196Z,5.70
2023-05-15T02:01:10.873Z,5.83
2023-05-15T02:03:34.605Z,6.53
2023-05-15T02:05:56.697Z,5.60
2023-05-15T02:08:18.565Z,5.67
2023-05-15T02:10:40.690Z,5.50
2023-05-15T02:13:02.553Z,5.67
2023-05-15T02:15:25.018Z,5.03
2023-05-15T02:17:46.793Z,5.47
2023-05-15T02:20:09.063Z,5.23
2023-05-15T02:22:30.626Z,5.20
2023-05-15T02:24:52.220Z,5.50
2023-05-15T02:27:20.594Z,4.83
2023-05-15T02:30:03.599Z,5.17
2023-05-15T02:32:34.966Z,5.23
2023-05-15T02:35:14.339Z,5.27
2023-05-15T02:37:39.513Z,5.87
2023-05-15T02:40:01.893Z,5.20
2023-05-15T02:42:23.937Z,5.07
2023-05-15T02:44:46.650Z,5.70
2023-05-15T02:47:08.482Z,6.33
2023-05-15T02:49:30.028Z,5.60
2023-05-15T02:51:51.526Z,4.50
2023-05-15T02:54:13.616Z,5.13
2023-05-15T02:56:35.421Z,4.73
2023-05-15T02:58:56.951Z,5.00
2023-05-15T03:01:18.452Z,4.70
2023-05-15T03:03:39.923Z,4.90
2023-05-15T03:06:01.558Z,5.73
2023-05-15T03:08:23.020Z,4.97
2023-05-15T03:10:44.700Z,5.00
2023-05-15T03:13:06.190Z,5.87
2023-05-15T03:15:27.857Z,5.20
2023-05-15T03:17:49.460Z,5.23
2023-05-15T03:20:11.220Z,9.07
2023-05-15T03:22:32.640Z,16.23
2023-05-15T03:24:54.066Z,14.87
2023-05-15T03:27:15.676Z,14.80
2023-05-15T03:29:37.106Z,7.73
2023-05-15T03:31:58.613Z,6.37
2023-05-15T03:34:20.124Z,7.63
2023-05-15T03:36:41.549Z,6.90
2023-05-15T03:39:03.064Z,6.60
2023-05-15T03:41:26.052Z,6.27
2023-05-15T03:43:47.486Z,5.83
2023-05-15T03:46:08.925Z,6.67
2023-05-15T03:48:30.378Z,7.07
2023-05-15T03:50:52.330Z,6.20
2023-05-15T03:53:13.840Z,5.77
2023-05-15T03:55:35.716Z,6.37
2023-05-15T03:57:57.840Z,6.43
2023-05-15T04:00:19.519Z,5.77
2023-05-15T04:02:41.476Z,6.87
2023-05-15T04:05:06.832Z,5.90
2023-05-15T04:07:28.329Z,5.90
2023-05-15T04:09:49.768Z,5.77
2023-05-15T04:12:11.479Z,5.73
2023-05-15T04:14:32.928Z,5.30
2023-05-15T04:16:54.353Z,6.10
2023-05-15T04:19:15.837Z,5.83
2023-05-15T04:21:37.299Z,5.70
2023-05-15T04:23:58.729Z,5.33
2023-05-15T04:26:20.196Z,6.90
2023-05-15T04:28:49.321Z,5.77
2023-05-15T04:31:17.815Z,6.40
2023-05-15T04:33:39.294Z,6.13
2023-05-15T04:36:00.805Z,6.30
2023-05-15T04:38:22.357Z,7.03
2023-05-15T04:40:44.206Z,6.57
2023-05-15T04:43:06.019Z,6.90
2023-05-15T04:45:27.475Z,6.27
2023-05-15T04:47:48.982Z,6.43
2023-05-15T04:50:10.670Z,5.90
2023-05-15T04:52:32.581Z,6.47
2023-05-15T04:54:55.829Z,6.80
2023-05-15T04:57:17.590Z,6.70
2023-05-15T04:59:39.081Z,6.77
2023-05-15T05:02:01.904Z,6.40
2023-05-15T05:04:23.500Z,6.37
2023-05-15T05:06:45.912Z,5.93
2023-05-15T05:09:07.340Z,5.80
2023-05-15T05:11:29.069Z,5.57
2023-05-15T05:13:51.826Z,5.47
2023-05-15T05:16:13.393Z,5.20
2023-05-15T05:18:34.976Z,5.37
2023-05-15T05:21:03.498Z,5.17
2023-05-15T05:23:24.901Z,5.53
2023-05-15T05:25:46.324Z,5.53
2023-05-15T05:28:07.838Z,5.10
2023-05-15T05:30:29.285Z,5.70
2023-05-15T05:32:50.805Z,5.70
2023-05-15T05:35:12.274Z,5.57
2023-05-15T05:37:33.770Z,5.60
2023-05-15T05:39:55.230Z,5.80
2023-05-15T05:42:16.630Z,6.23
2023-05-15T05:44:38.060Z,6.10
2023-05-15T05:46:59.475Z,6.30
2023-05-15T05:49:21.005Z,6.03
2023-05-15T05:51:42.481Z,6.10
2023-05-15T05:54:04.072Z,6.47
2023-05-15T05:56:26.620Z,6.33
2023-05-15T05:58:48.244Z,5.53
2023-05-15T06:01:10.082Z,6.17
2023-05-15T06:03:31.874Z,6.97
2023-05-15T06:05:53.816Z,7.03
2023-05-15T06:08:15.460Z,6.90
2023-05-15T06:10:36.917Z,6.90
2023-05-15T06:12:58.378Z,7.27
2023-05-15T06:15:19.855Z,7.30
2023-05-15T06:17:41.582Z,7.37
2023-05-15T06:20:06.986Z,7.20
2023-05-15T06:22:28.531Z,8.20
2023-05-15T06:24:49.983Z,7.57
2023-05-15T06:27:11.478Z,7.07
2023-05-15T06:29:32.916Z,6.83
2023-05-15T06:31:54.376Z,7.00
2023-05-15T06:34:15.807Z,6.80
2023-05-15T06:36:37.443Z,7.53
2023-05-15T06:38:58.852Z,7.10
2023-05-15T06:41:20.278Z,6.37
2023-05-15T06:43:41.705Z,7.30
2023-05-15T06:46:03.384Z,7.13
2023-05-15T06:48:24.894Z,7.20
2023-05-15T06:50:46.338Z,7.00
2023-05-15T06:53:07.792Z,7.30
2023-05-15T06:55:29.370Z,7.00
2023-05-15T06:57:50.877Z,6.87
2023-05-15T07:00:12.908Z,7.65
2023-05-15T07:02:34.380Z,7.05
2023-05-15T07:04:56.216Z,6.72
2023-05-15T07:07:18.313Z,6.85
2023-05-15T07:09:39.781Z,5.93
2023-05-15T07:12:01.207Z,6.18
2023-05-15T07:14:22.658Z,6.03
2023-05-15T07:16:45.138Z,6.32
2023-05-15T07:19:09.183Z,7.43
2023-05-15T07:21:30.854Z,7.88
2023-05-15T07:23:52.292Z,7.60
2023-05-15T07:26:20.094Z,6.75
2023-05-15T07:28:49.296Z,7.57
2023-05-15T07:31:10.724Z,7.25
2023-05-15T07:33:32.161Z,6.78
2023-05-15T07:35:53.562Z,5.90
2023-05-15T07:38:15.044Z,5.93
2023-05-15T07:40:36.542Z,5.90
2023-05-15T07:42:58.505Z,6.25
2023-05-15T07:45:19.998Z,6.28
2023-05-15T07:47:47.093Z,5.55
2023-05-15T07:50:09.082Z,5.93
2023-05-15T07:52:30.624Z,5.32
2023-05-15T07:54:52.073Z,5.70
2023-05-15T07:57:14.195Z,5.13
2023-05-15T07:59:36.572Z,4.20
2023-05-15T08:01:58.094Z,4.40
2023-05-15T08:04:19.635Z,4.85
2023-05-15T08:06:42.778Z,4.47
2023-05-15T08:09:05.987Z,4.57
2023-05-15T08:11:27.445Z,4.60
2023-05-15T08:13:48.981Z,5.20
2023-05-15T08:16:10.645Z,4.57
2023-05-15T08:18:32.311Z,3.75
2023-05-15T08:20:53.766Z,4.50
2023-05-15T08:23:15.261Z,4.13
2023-05-15T08:25:36.706Z,4.15
2023-05-15T08:27:58.200Z,4.22
2023-05-15T08:30:19.648Z,3.92
2023-05-15T08:32:43.952Z,4.30
2023-05-15T08:35:05.897Z,4.63
2023-05-15T08:37:27.340Z,4.57
2023-05-15T08:39:48.802Z,4.22
2023-05-15T08:42:34.105Z,4.70
2023-05-15T08:44:55.949Z,4.88
2023-05-15T08:47:19.396Z,4.43
2023-05-15T08:50:06.056Z,5.05
2023-05-15T08:52:28.684Z,5.03
2023-05-15T08:54:50.777Z,5.22
2023-05-15T08:57:12.210Z,4.57
2023-05-15T08:59:33.671Z,4.53
2023-05-15T09:01:56.068Z,4.30
2023-05-15T09:04:17.531Z,4.43
2023-05-15T09:06:40.814Z,4.30
2023-05-15T09:09:05.188Z,3.95
2023-05-15T09:11:27.008Z,4.18
2023-05-15T09:13:48.442Z,4.25
2023-05-15T09:16:09.952Z,4.00
2023-05-15T09:18:32.589Z,4.18
2023-05-15T09:20:56.066Z,4.47
2023-05-15T09:23:26.947Z,4.03
2023-05-15T09:25:53.144Z,4.05
2023-05-15T09:28:32.418Z,4.15
2023-05-15T09:31:04.800Z,3.97
2023-05-15T09:33:34.501Z,4.28
2023-05-15T09:35:56.080Z,3.88
2023-05-15T09:38:18.967Z,5.72
2023-05-15T09:40:41.061Z,4.82
2023-05-15T09:43:02.589Z,5.82
2023-05-15T09:45:29.852Z,3.97
2023-05-15T09:47:52.078Z,4.15
2023-05-15T09:50:21.477Z,4.35
2023-05-15T09:52:42.948Z,4.28
2023-05-15T09:55:06.216Z,4.43
2023-05-15T09:57:27.635Z,6.85
2023-05-15T09:59:49.598Z,5.25
2023-05-15T10:02:35.299Z,4.88
2023-05-15T10:04:58.158Z,4.45
2023-05-15T10:07:36.478Z,4.75
2023-05-15T10:09:58.496Z,4.32
2023-05-15T10:12:20.327Z,4.63
2023-05-15T10:14:41.823Z,4.70
2023-05-15T10:17:03.342Z,4.88
2023-05-15T10:19:27.788Z,5.28
2023-05-15T10:21:52.774Z,4.80
2023-05-15T10:24:16.593Z,4.15
2023-05-15T10:26:42.733Z,4.20
2023-05-15T10:29:07.213Z,4.32
2023-05-15T10:31:30.120Z,3.85
2023-05-15T10:33:55.273Z,4.20
2023-05-15T10:36:18.057Z,4.35
2023-05-15T10:38:40.270Z,4.18
2023-05-15T10:41:15.908Z,3.90
2023-05-15T10:43:39.746Z,3.85
2023-05-15T10:46:02.022Z,3.88
2023-05-15T10:48:24.955Z,4.00
2023-05-15T10:50:48.748Z,3.65
2023-05-15T10:53:10.880Z,4.20
2023-05-15T10:55:32.608Z,4.35
2023-05-15T10:57:54.978Z,3.80
2023-05-15T11:00:22.433Z,4.28
2023-05-15T11:02:44.804Z,3.85
2023-05-15T11:05:07.044Z,3.97
2023-05-15T11:07:28.586Z,5.03
2023-05-15T11:09:50.556Z,3.90
2023-05-15T11:12:12.166Z,4.20
2023-05-15T11:14:40.564Z,3.92
2023-05-15T11:17:12.306Z,4.05
2023-05-15T11:20:03.289Z,4.35
2023-05-15T11:22:30.830Z,4.82
2023-05-15T11:24:59.401Z,3.67
2023-05-15T11:27:26.313Z,4.20
2023-05-15T11:30:29.600Z,4.18
2023-05-15T11:33:04.274Z,3.95
2023-05-15T11:35:43.256Z,3.60
2023-05-15T11:38:10.956Z,3.70
2023-05-15T11:40:43.877Z,3.58
2023-05-15T11:43:18.366Z,4.05
2023-05-15T11:45:40.540Z,3.78
2023-05-15T11:48:03.641Z,3.83
2023-05-15T11:50:25.638Z,4.13
2023-05-15T11:52:49.607Z,4.20
2023-05-15T11:55:11.279Z,4.13
2023-05-15T11:57:32.901Z,3.60
2023-05-15T11:59:55.666Z,3.97
2023-05-15T12:02:17.121Z,3.83
2023-05-15T12:04:38.560Z,4.25
2023-05-15T12:07:03.215Z,3.83
2023-05-15T12:09:27.624Z,4.47
2023-05-15T12:11:53.420Z,3.88
2023-05-15T12:14:14.872Z,3.63
2023-05-15T12:16:36.374Z,3.72
2023-05-15T12:18:58.087Z,4.22
2023-05-15T12:21:19.674Z,3.65
2023-05-15T12:23:41.168Z,3.78
2023-05-15T12:26:03.708Z,4.05
2023-05-15T12:28:26.846Z,3.80
2023-05-15T12:30:49.396Z,4.30
2023-05-15T12:33:11.228Z,3.90
2023-05-15T12:35:34.721Z,3.92
2023-05-15T12:37:56.280Z,4.03
2023-05-15T12:40:21.512Z,3.70
2023-05-15T12:42:44.723Z,3.88
2023-05-15T12:45:16.344Z,3.92
2023-05-15T12:47:38.252Z,3.67
2023-05-15T12:49:59.906Z,3.67
2023-05-15T12:52:21.331Z,3.80
2023-05-15T12:54:44.678Z,4.80
2023-05-15T12:57:06.215Z,2.95
2023-05-15T12:59:28.657Z,2.67
2023-05-15T13:01:50.491Z,4.40
2023-05-15T13:04:12.021Z,3.00
2023-05-15T13:06:45.083Z,2.55
2023-05-15T13:09:08.397Z,2.58
2023-05-15T13:11:31.593Z,2.60
2023-05-15T13:13:53.039Z,2.85
2023-05-15T13:16:22.453Z,2.70
2023-05-15T13:18:44.329Z,2.90
2023-05-15T13:21:05.806Z,2.55
2023-05-15T13:23:27.267Z,2.58
2023-05-15T13:25:48.751Z,2.67
2023-05-15T13:28:11.417Z,2.40
2023-05-15T13:30:39.065Z,2.90
2023-05-15T13:33:01.549Z,2.83
2023-05-15T13:35:23.356Z,2.97
2023-05-15T13:37:44.828Z,2.45
2023-05-15T13:40:10.083Z,2.67
2023-05-15T13:42:31.502Z,2.60
2023-05-15T13:44:53.209Z,2.58
2023-05-15T13:47:15.444Z,2.63
2023-05-15T13:49:37.086Z,2.78
2023-05-15T13:51:58.586Z,2.00
2023-05-15T13:54:20.042Z,2.50
2023-05-15T13:56:41.500Z,2.55
2023-05-15T13:59:02.956Z,2.42
2023-05-15T14:01:24.466Z,2.90
2023-05-15T14:03:46.019Z,2.53
2023-05-15T14:06:07.558Z,2.67
2023-05-15T14:08:29.054Z,2.50
2023-05-15T14:10:50.490Z,2.70
2023-05-15T14:13:11.923Z,2.72
2023-05-15T14:15:33.367Z,3.40
2023-05-15T14:17:54.832Z,3.17
2023-05-15T14:20:16.342Z,3.67
2023-05-15T14:22:38.533Z,3.95
2023-05-15T14:24:59.976Z,3.95
2023-05-15T14:27:21.436Z,3.58
2023-05-15T14:29:44.819Z,3.38
2023-05-15T14:32:06.863Z,3.50
2023-05-15T14:34:30.356Z,3.28
2023-05-15T14:36:51.889Z,5.55
2023-05-15T14:39:16.996Z,5.05
2023-05-15T14:41:38.491Z,3.75
2023-05-15T14:44:00.002Z,5.75
2023-05-15T14:46:21.571Z,3.90
2023-05-15T14:48:43.114Z,4.00
2023-05-15T14:51:05.038Z,5.55
2023-05-15T14:53:27.430Z,3.50
2023-05-15T14:55:48.890Z,3.10
2023-05-15T14:58:11.416Z,3.03
2023-05-15T15:00:32.952Z,3.55
2023-05-15T15:02:54.444Z,3.00
2023-05-15T15:05:16.042Z,2.75
2023-05-15T15:08:09.356Z,3.13
2023-05-15T15:10:32.629Z,3.17
2023-05-15T15:12:54.349Z,2.80
2023-05-15T15:15:15.858Z,2.83
2023-05-15T15:17:37.269Z,2.70
2023-05-15T15:19:58.734Z,2.92
2023-05-15T15:22:20.160Z,3.25
2023-05-15T15:24:41.603Z,3.25
2023-05-15T15:27:03.089Z,3.60
2023-05-15T15:29:24.604Z,3.53
2023-05-15T15:31:46.034Z,3.10
2023-05-15T15:34:09.083Z,3.30
2023-05-15T15:36:31.369Z,3.50
2023-05-15T15:38:52.992Z,3.47
2023-05-15T15:41:14.440Z,3.92
2023-05-15T15:43:36.087Z,3.38
2023-05-15T15:45:57.641Z,3.28
2023-05-15T15:48:19.145Z,3.53
2023-05-15T15:50:40.666Z,3.25
2023-05-15T15:53:02.078Z,3.25
2023-05-15T15:55:23.517Z,3.40
2023-05-15T15:57:45.002Z,3.40
2023-05-15T16:00:08.261Z,3.28
2023-05-15T16:02:29.817Z,3.30
2023-05-15T16:04:51.244Z,3.10
2023-05-15T16:07:12.699Z,3.00
2023-05-15T16:09:34.408Z,2.92
2023-05-15T16:11:56.048Z,3.20
2023-05-15T16:14:18.874Z,2.70
2023-05-15T16:16:40.627Z,2.42
2023-05-15T16:19:02.124Z,2.70
2023-05-15T16:21:23.608Z,3.13
2023-05-15T16:23:45.474Z,2.70
2023-05-15T16:26:08.229Z,2.38
2023-05-15T16:28:29.662Z,2.80
2023-05-15T16:30:51.576Z,2.85
2023-05-15T16:33:13.637Z,3.15
2023-05-15T16:35:36.753Z,2.92
2023-05-15T16:37:58.170Z,3.40
2023-05-15T16:40:19.629Z,4.25
2023-05-15T16:42:41.497Z,4.60
2023-05-15T16:45:03.515Z,5.40
2023-05-15T16:47:24.983Z,5.40
2023-05-15T16:49:48.344Z,5.93
2023-05-15T16:52:11.427Z,5.63
2023-05-15T16:54:32.991Z,6.43
2023-05-15T16:56:55.903Z,6.00
2023-05-15T16:59:17.350Z,6.10
2023-05-15T17:01:38.832Z,6.70
2023-05-15T17:04:00.359Z,6.70
2023-05-15T17:06:21.791Z,7.15
2023-05-15T17:08:45.163Z,6.32
2023-05-15T17:11:06.562Z,6.70
2023-05-15T17:13:28.033Z,6.85
2023-05-15T17:15:49.853Z,5.90
2023-05-15T17:18:11.355Z,6.43
2023-05-15T17:20:32.773Z,6.40
2023-05-15T17:22:54.233Z,5.28
2023-05-15T17:25:15.767Z,5.25
2023-05-15T17:27:41.113Z,5.40
2023-05-15T17:30:02.593Z,5.07
2023-05-15T17:32:24.124Z,6.30
2023-05-15T17:34:46.351Z,5.82
2023-05-15T17:37:08.841Z,5.72
2023-05-15T17:39:30.247Z,5.15
2023-05-15T17:41:51.693Z,5.80
2023-05-15T17:44:13.304Z,5.55
2023-05-15T17:46:34.932Z,5.57
2023-05-15T17:48:56.416Z,5.07
2023-05-15T17:51:17.865Z,5.40
2023-05-15T17:53:39.409Z,5.65
2023-05-15T17:56:01.250Z,6.00
2023-05-15T17:58:22.799Z,5.95
2023-05-15T18:00:44.403Z,5.78
2023-05-15T18:03:05.902Z,5.90
2023-05-15T18:05:27.797Z,6.00
2023-05-15T18:07:49.584Z,5.72
2023-05-15T18:10:11.067Z,5.45
2023-05-15T18:12:32.551Z,5.78
2023-05-15T18:14:54.378Z,6.15
2023-05-15T18:17:16.249Z,11.55
2023-05-15T18:19:39.636Z,5.90
2023-05-15T18:22:03.289Z,7.13
2023-05-15T18:24:24.806Z,7.10
2023-05-15T18:26:46.892Z,7.32
2023-05-15T18:29:08.840Z,6.40
2023-05-15T18:31:30.319Z,6.65
2023-05-15T18:33:51.854Z,7.00
2023-05-15T18:36:13.368Z,7.75
2023-05-15T18:38:34.857Z,8.88
2023-05-15T18:40:56.313Z,8.50
2023-05-15T18:43:17.744Z,8.63
2023-05-15T18:45:39.453Z,8.65
2023-05-15T18:48:00.909Z,8.93
2023-05-15T18:50:24.901Z,8.43
2023-05-15T18:52:46.732Z,9.13
2023-05-15T18:55:09.789Z,8.73
2023-05-15T18:57:31.225Z,9.37
2023-05-15T18:59:52.929Z,8.50
2023-05-15T19:02:14.695Z,8.43
2023-05-15T19:04:36.360Z,8.53
2023-05-15T19:06:57.926Z,9.07
2023-05-15T19:09:19.799Z,9.83
2023-05-15T19:11:41.224Z,9.10
2023-05-15T19:14:02.765Z,7.90
2023-05-15T19:16:28.451Z,8.57
2023-05-15T19:18:50.149Z,8.27
2023-05-15T19:21:11.758Z,8.40
2023-05-15T19:23:33.191Z,8.60
2023-05-15T19:25:54.607Z,8.97
2023-05-15T19:28:16.224Z,9.33
2023-05-15T19:30:37.624Z,10.40
2023-05-15T19:32:59.140Z,10.90
2023-05-15T19:35:20.633Z,9.37
2023-05-15T19:37:42.387Z,10.30
2023-05-15T19:40:04.642Z,9.20
2023-05-15T19:42:26.489Z,9.37
2023-05-15T19:44:47.930Z,9.37
2023-05-15T19:47:09.769Z,9.10
2023-05-15T19:49:31.273Z,8.63
2023-05-15T19:51:52.777Z,9.40
2023-05-15T19:54:15.992Z,9.43
2023-05-15T19:56:37.478Z,8.63
2023-05-15T19:59:00.433Z,8.77
2023-05-15T20:01:22.018Z,8.67
2023-05-15T20:03:43.687Z,9.00
2023-05-15T20:06:05.757Z,8.80
2023-05-15T20:08:27.532Z,9.10
2023-05-15T20:10:52.596Z,10.10
2023-05-15T20:13:14.018Z,10.73
2023-05-15T20:15:35.955Z,10.83
2023-05-15T20:17:57.848Z,9.97
2023-05-15T20:20:19.388Z,10.00
2023-05-15T20:22:43.439Z,10.97
2023-05-15T20:25:06.325Z,9.60
2023-05-15T20:27:27.716Z,8.70
2023-05-15T20:29:49.206Z,10.00
2023-05-15T20:32:11.045Z,10.30
2023-05-15T20:34:33.389Z,9.63
2023-05-15T20:36:56.225Z,9.93
2023-05-15T20:39:17.914Z,9.70
2023-05-15T20:41:39.335Z,9.87
2023-05-15T20:44:01.045Z,9.03
2023-05-15T20:46:22.531Z,9.43
2023-05-15T20:48:44.148Z,9.77
2023-05-15T20:51:05.573Z,9.87
2023-05-15T20:53:28.811Z,9.30
2023-05-15T20:55:50.350Z,9.37
2023-05-15T20:58:11.780Z,9.67
2023-05-15T21:00:33.305Z,9.50
2023-05-15T21:02:54.814Z,10.03
2023-05-15T21:05:16.374Z,9.33
2023-05-15T21:07:38.074Z,9.93
2023-05-15T21:09:59.572Z,10.47
2023-05-15T21:12:20.986Z,9.53
2023-05-15T21:14:42.396Z,9.80
2023-05-15T21:17:03.961Z,9.33
2023-05-15T21:19:25.490Z,9.27
2023-05-15T21:21:46.926Z,9.57
2023-05-15T21:24:08.512Z,9.40
2023-05-15T21:26:30.446Z,9.03
2023-05-15T21:28:51.882Z,8.90
2023-05-15T21:31:13.472Z,9.23
2023-05-15T21:33:35.700Z,9.33
2023-05-15T21:35:57.125Z,9.83
2023-05-15T21:38:18.549Z,9.43
2023-05-15T21:40:39.997Z,9.83
2023-05-15T21:43:01.467Z,9.60
2023-05-15T21:45:23.236Z,10.23
2023-05-15T21:47:44.790Z,9.40
2023-05-15T21:50:07.111Z,10.20
2023-05-15T21:52:28.548Z,9.13
2023-05-15T21:54:50.128Z,10.57
2023-05-15T21:57:11.594Z,9.70
2023-05-15T21:59:33.028Z,10.10
2023-05-15T22:01:54.495Z,9.23
2023-05-15T22:04:16.102Z,9.67
2023-05-15T22:06:37.509Z,8.80
2023-05-15T22:08:58.938Z,8.43
2023-05-15T22:11:20.705Z,9.17
2023-05-15T22:13:42.219Z,8.47
2023-05-15T22:16:03.738Z,8.37
2023-05-15T22:18:26.188Z,8.87
2023-05-15T22:20:48.732Z,8.63
2023-05-15T22:23:10.497Z,8.73
2023-05-15T22:25:31.908Z,8.33
2023-05-15T22:27:53.387Z,9.07
2023-05-15T22:30:14.986Z,9.80
2023-05-15T22:32:36.569Z,9.03
2023-05-15T22:34:58.698Z,8.97
2023-05-15T22:37:20.371Z,9.20
2023-05-15T22:39:42.443Z,9.40
2023-05-15T22:42:04.207Z,9.60
2023-05-15T22:44:25.687Z,9.63
2023-05-15T22:46:47.135Z,9.40
2023-05-15T22:49:09.948Z,9.40
2023-05-15T22:51:31.650Z,10.17
2023-05-15T22:53:53.090Z,10.13
2023-05-15T22:56:14.851Z,9.63
2023-05-15T22:58:36.342Z,9.77
2023-05-15T23:00:57.844Z,9.83
2023-05-15T23:03:19.432Z,9.40
2023-05-15T23:05:41.221Z,8.87
2023-05-15T23:08:02.677Z,9.90
2023-05-15T23:10:24.383Z,10.17
2023-05-15T23:12:46.306Z,10.30
2023-05-15T23:15:10.367Z,9.87
2023-05-15T23:17:31.916Z,9.67
2023-05-15T23:19:53.534Z,9.73
2023-05-15T23:22:15.013Z,10.47
2023-05-15T23:24:36.446Z,9.90
2023-05-15T23:26:57.889Z,10.07
2023-05-15T23:29:19.375Z,10.20
2023-05-15T23:31:42.902Z,9.73
2023-05-15T23:34:04.494Z,10.17
2023-05-15T23:36:25.966Z,9.57
2023-05-15T23:38:47.370Z,9.87
2023-05-15T23:41:08.878Z,10.30
2023-05-15T23:43:30.437Z,11.80
2023-05-15T23:45:51.861Z,10.20
2023-05-15T23:48:13.320Z,10.47
2023-05-15T23:50:35.041Z,9.90
2023-05-15T23:52:56.451Z,10.73
2023-05-15T23:55:17.916Z,10.10
2023-05-15T23:57:39.814Z,10.07
